createdAt,value
2023-05-19T00:00:41.907Z,454.00
2023-05-19T00:01:41.950Z,455.00
2023-05-19T00:02:42.074Z,454.00
2023-05-19T00:03:42.079Z,453.00
2023-05-19T00:04:42.121Z,452.00
2023-05-19T00:05:42.187Z,451.00
2023-05-19T00:06:42.228Z,453.00
2023-05-19T00:07:42.278Z,452.00
2023-05-19T00:08:42.331Z,454.00
2023-05-19T00:09:42.402Z,453.00
2023-05-19T00:10:42.458Z,453.00
2023-05-19T00:11:42.506Z,454.00
2023-05-19T00:12:42.556Z,457.00
2023-05-19T00:13:42.603Z,453.00
2023-05-19T00:14:42.665Z,454.00
2023-05-19T00:15:42.722Z,453.00
2023-05-19T00:16:42.707Z,457.00
2023-05-19T00:17:42.750Z,458.00
2023-05-19T00:18:42.759Z,459.00
2023-05-19T00:19:42.762Z,460.00
2023-05-19T00:20:42.801Z,459.00
2023-05-19T00:21:42.828Z,454.00
2023-05-19T00:22:42.835Z,452.00
2023-05-19T00:23:42.870Z,453.00
2023-05-19T00:24:42.894Z,454.00
2023-05-19T00:25:42.922Z,455.00
2023-05-19T00:26:42.939Z,455.00
2023-05-19T00:27:42.959Z,453.00
2023-05-19T00:28:42.985Z,453.00
2023-05-19T00:29:42.995Z,454.00
2023-05-19T00:30:43.010Z,454.00
2023-05-19T00:31:43.053Z,455.00
2023-05-19T00:32:43.142Z,456.00
2023-05-19T00:33:43.134Z,456.00
2023-05-19T00:34:43.174Z,454.00
2023-05-19T00:35:43.226Z,452.00
2023-05-19T00:36:43.284Z,449.00
2023-05-19T00:37:43.335Z,448.00
2023-05-19T00:38:43.352Z,452.00
2023-05-19T00:39:43.396Z,453.00
2023-05-19T00:40:43.405Z,452.00
2023-05-19T00:41:43.443Z,454.00
2023-05-19T00:42:43.507Z,453.00
2023-05-19T00:43:43.472Z,452.00
2023-05-19T00:44:43.500Z,453.00
2023-05-19T00:45:43.523Z,451.00
2023-05-19T00:46:43.571Z,451.00
2023-05-19T00:47:43.631Z,451.00
2023-05-19T00:48:43.591Z,453.00
2023-05-19T00:49:43.602Z,454.00
2023-05-19T00:50:43.624Z,452.00
2023-05-19T00:51:43.639Z,448.00
2023-05-19T00:52:43.672Z,447.00
2023-05-19T00:53:43.698Z,446.00
2023-05-19T00:54:43.743Z,449.00
2023-05-19T00:55:43.812Z,454.00
2023-05-19T00:56:43.863Z,454.00
2023-05-19T00:57:43.934Z,454.00
2023-05-19T00:58:43.975Z,456.00
2023-05-19T00:59:44.042Z,458.00
2023-05-19T01:00:44.126Z,459.00
2023-05-19T01:01:44.128Z,459.00
2023-05-19T01:02:44.167Z,458.00
2023-05-19T01:03:44.246Z,457.00
2023-05-19T01:04:44.185Z,454.00
2023-05-19T01:05:44.209Z,455.00
2023-05-19T01:06:44.241Z,453.00
2023-05-19T01:07:44.272Z,453.00
2023-05-19T01:08:44.283Z,453.00
2023-05-19T01:09:44.310Z,452.00
2023-05-19T01:10:44.323Z,451.00
2023-05-19T01:11:44.366Z,450.00
2023-05-19T01:12:44.379Z,452.00
2023-05-19T01:13:44.409Z,452.00
2023-05-19T01:14:44.419Z,454.00
2023-05-19T01:15:44.453Z,454.00
2023-05-19T01:16:44.548Z,454.00
2023-05-19T01:17:44.514Z,452.00
2023-05-19T01:18:44.587Z,450.00
2023-05-19T01:19:44.519Z,454.00
2023-05-19T01:20:44.533Z,453.00
2023-05-19T01:21:44.620Z,452.00
2023-05-19T01:22:44.580Z,452.00
2023-05-19T01:23:44.628Z,452.00
2023-05-19T01:24:44.642Z,450.00
2023-05-19T01:25:44.690Z,452.00
2023-05-19T01:26:44.748Z,453.00
2023-05-19T01:27:44.811Z,452.00
2023-05-19T01:28:44.874Z,454.00
2023-05-19T01:29:44.945Z,455.00
2023-05-19T01:30:44.999Z,457.00
2023-05-19T01:31:45.071Z,455.00
2023-05-19T01:32:45.123Z,454.00
2023-05-19T01:33:45.175Z,454.00
2023-05-19T01:34:45.213Z,451.00
2023-05-19T01:35:45.277Z,449.00
2023-05-19T01:36:45.350Z,451.00
2023-05-19T01:37:45.412Z,451.00
2023-05-19T01:38:45.476Z,453.00
2023-05-19T01:39:45.533Z,455.00
2023-05-19T01:40:45.635Z,451.00
2023-05-19T01:41:45.669Z,448.00
2023-05-19T01:42:45.705Z,450.00
2023-05-19T01:43:45.779Z,451.00
2023-05-19T01:44:45.838Z,450.00
2023-05-19T01:45:45.996Z,450.00
2023-05-19T01:46:45.967Z,454.00
2023-05-19T01:47:46.041Z,451.00
2023-05-19T01:48:46.105Z,455.00
2023-05-19T01:49:46.174Z,453.00
2023-05-19T01:50:46.224Z,454.00
2023-05-19T01:51:46.296Z,453.00
2023-05-19T01:52:46.367Z,451.00
2023-05-19T01:53:46.434Z,450.00
2023-05-19T01:54:46.493Z,452.00
2023-05-19T01:55:46.545Z,451.00
2023-05-19T01:56:46.624Z,453.00
2023-05-19T01:57:46.689Z,452.00
2023-05-19T01:58:46.751Z,453.00
2023-05-19T01:59:46.814Z,449.00
2023-05-19T02:00:46.860Z,447.00
2023-05-19T02:01:47.073Z,448.00
2023-05-19T02:02:47.045Z,445.00
2023-05-19T02:03:47.060Z,446.00
2023-05-19T02:04:47.180Z,445.00
2023-05-19T02:05:47.175Z,443.00
2023-05-19T02:06:47.255Z,442.00
2023-05-19T02:07:47.348Z,442.00
2023-05-19T02:08:47.375Z,440.00
2023-05-19T02:09:47.422Z,439.00
2023-05-19T02:10:47.482Z,439.00
2023-05-19T02:11:47.551Z,441.00
2023-05-19T02:12:47.618Z,442.00
2023-05-19T02:13:47.664Z,442.00
2023-05-19T02:14:47.732Z,443.00
2023-05-19T02:15:47.823Z,441.00
2023-05-19T02:16:47.860Z,442.00
2023-05-19T02:17:48.071Z,450.00
2023-05-19T02:18:48.037Z,451.00
2023-05-19T02:19:48.052Z,450.00
2023-05-19T02:20:48.108Z,450.00
2023-05-19T02:21:48.180Z,451.00
2023-05-19T02:22:48.232Z,452.00
2023-05-19T02:23:48.291Z,446.00
2023-05-19T02:24:48.361Z,445.00
2023-05-19T02:25:48.430Z,444.00
2023-05-19T02:26:48.499Z,445.00
2023-05-19T02:27:48.575Z,444.00
2023-05-19T02:28:48.632Z,443.00
2023-05-19T02:29:48.705Z,445.00
2023-05-19T02:30:48.772Z,444.00
2023-05-19T02:31:48.869Z,447.00
2023-05-19T02:32:48.926Z,447.00
2023-05-19T02:33:48.982Z,450.00
2023-05-19T02:34:49.054Z,449.00
2023-05-19T02:35:49.126Z,451.00
2023-05-19T02:36:49.189Z,449.00
2023-05-19T02:37:49.259Z,451.00
2023-05-19T02:38:49.319Z,450.00
2023-05-19T02:39:49.396Z,452.00
2023-05-19T02:40:49.466Z,454.00
2023-05-19T02:41:49.536Z,455.00
2023-05-19T02:42:49.599Z,453.00
2023-05-19T02:43:49.660Z,451.00
2023-05-19T02:44:49.725Z,449.00
2023-05-19T02:45:49.798Z,451.00
2023-05-19T02:46:49.890Z,443.00
2023-05-19T02:47:49.955Z,446.00
2023-05-19T02:48:49.986Z,446.00
2023-05-19T02:49:50.057Z,447.00
2023-05-19T02:50:50.110Z,445.00
2023-05-19T02:51:50.196Z,446.00
2023-05-19T02:52:50.243Z,444.00
2023-05-19T02:53:50.316Z,446.00
2023-05-19T02:54:50.385Z,445.00
2023-05-19T02:55:50.449Z,445.00
2023-05-19T02:56:50.533Z,447.00
2023-05-19T02:57:50.596Z,449.00
2023-05-19T02:58:50.658Z,450.00
2023-05-19T02:59:50.793Z,447.00
2023-05-19T03:00:50.799Z,447.00
2023-05-19T03:01:50.943Z,448.00
2023-05-19T03:02:50.997Z,444.00
2023-05-19T03:03:51.141Z,443.00
2023-05-19T03:04:51.160Z,445.00
2023-05-19T03:05:51.171Z,447.00
2023-05-19T03:06:51.296Z,448.00
2023-05-19T03:07:51.294Z,447.00
2023-05-19T03:08:51.377Z,450.00
2023-05-19T03:09:51.447Z,449.00
2023-05-19T03:10:51.517Z,452.00
2023-05-19T03:11:51.629Z,453.00
2023-05-19T03:12:51.694Z,449.00
2023-05-19T03:13:51.770Z,449.00
2023-05-19T03:14:51.843Z,452.00
2023-05-19T03:15:51.959Z,450.00
2023-05-19T03:16:52.142Z,450.00
2023-05-19T03:17:52.202Z,453.00
2023-05-19T03:18:52.213Z,449.00
2023-05-19T03:19:52.296Z,451.00
2023-05-19T03:20:52.361Z,452.00
2023-05-19T03:21:52.455Z,453.00
2023-05-19T03:22:52.537Z,455.00
2023-05-19T03:23:52.631Z,454.00
2023-05-19T03:24:52.716Z,455.00
2023-05-19T03:25:52.817Z,453.00
2023-05-19T03:26:52.908Z,449.00
2023-05-19T03:27:53.011Z,452.00
2023-05-19T03:28:53.111Z,451.00
2023-05-19T03:29:53.189Z,450.00
2023-05-19T03:30:53.276Z,455.00
2023-05-19T03:31:53.346Z,455.00
2023-05-19T03:32:53.472Z,456.00
2023-05-19T03:33:53.488Z,458.00
2023-05-19T03:34:53.617Z,459.00
2023-05-19T03:35:53.636Z,459.00
2023-05-19T03:36:53.709Z,459.00
2023-05-19T03:37:53.813Z,460.00
2023-05-19T03:38:53.876Z,457.00
2023-05-19T03:39:53.949Z,455.00
2023-05-19T03:40:54.028Z,455.00
2023-05-19T03:41:54.095Z,456.00
2023-05-19T03:42:54.158Z,457.00
2023-05-19T03:43:54.217Z,457.00
2023-05-19T03:44:54.243Z,458.00
2023-05-19T03:45:54.300Z,459.00
2023-05-19T03:46:54.294Z,459.00
2023-05-19T03:47:54.335Z,460.00
2023-05-19T03:48:54.360Z,461.00
2023-05-19T03:49:54.367Z,462.00
2023-05-19T03:50:54.416Z,460.00
2023-05-19T03:51:54.447Z,459.00
2023-05-19T03:52:54.472Z,456.00
2023-05-19T03:53:54.492Z,455.00
2023-05-19T03:54:54.542Z,456.00
2023-05-19T03:55:54.544Z,457.00
2023-05-19T03:56:54.627Z,458.00
2023-05-19T03:57:54.666Z,459.00
2023-05-19T03:58:54.743Z,459.00
2023-05-19T03:59:54.763Z,461.00
2023-05-19T04:00:54.810Z,461.00
2023-05-19T04:01:54.883Z,460.00
2023-05-19T04:02:54.946Z,462.00
2023-05-19T04:03:55.046Z,462.00
2023-05-19T04:04:55.095Z,464.00
2023-05-19T04:05:55.030Z,463.00
2023-05-19T04:06:55.081Z,468.00
2023-05-19T04:07:55.114Z,470.00
2023-05-19T04:08:55.167Z,467.00
2023-05-19T04:09:55.220Z,468.00
2023-05-19T04:10:55.277Z,468.00
2023-05-19T04:11:55.337Z,469.00
2023-05-19T04:12:55.376Z,468.00
2023-05-19T04:13:55.423Z,469.00
2023-05-19T04:14:55.471Z,464.00
2023-05-19T04:15:55.566Z,464.00
2023-05-19T04:16:55.574Z,463.00
2023-05-19T04:17:55.670Z,462.00
2023-05-19T04:18:55.682Z,465.00
2023-05-19T04:19:55.750Z,469.00
2023-05-19T04:20:55.748Z,472.00
2023-05-19T04:21:55.782Z,469.00
2023-05-19T04:22:55.824Z,471.00
2023-05-19T04:23:55.891Z,470.00
2023-05-19T04:24:55.931Z,468.00
2023-05-19T04:25:55.977Z,469.00
2023-05-19T04:26:56.045Z,471.00
2023-05-19T04:27:56.073Z,471.00
2023-05-19T04:28:56.103Z,470.00
2023-05-19T04:29:56.204Z,472.00
2023-05-19T04:30:56.283Z,472.00
2023-05-19T04:31:56.271Z,468.00
2023-05-19T04:32:56.365Z,466.00
2023-05-19T04:33:56.385Z,466.00
2023-05-19T04:34:56.424Z,467.00
2023-05-19T04:35:56.483Z,466.00
2023-05-19T04:36:56.527Z,466.00
2023-05-19T04:37:56.570Z,465.00
2023-05-19T04:38:56.624Z,469.00
2023-05-19T04:39:56.677Z,472.00
2023-05-19T04:40:56.738Z,470.00
2023-05-19T04:41:56.826Z,466.00
2023-05-19T04:42:56.841Z,464.00
2023-05-19T04:43:56.886Z,464.00
2023-05-19T04:44:56.946Z,464.00
2023-05-19T04:45:57.012Z,463.00
2023-05-19T04:46:57.119Z,462.00
2023-05-19T04:47:57.151Z,464.00
2023-05-19T04:48:57.202Z,466.00
2023-05-19T04:49:57.208Z,465.00
2023-05-19T04:50:57.267Z,462.00
2023-05-19T04:51:57.298Z,460.00
2023-05-19T04:52:57.337Z,460.00
2023-05-19T04:53:57.382Z,460.00
2023-05-19T04:54:57.402Z,461.00
2023-05-19T04:55:57.446Z,463.00
2023-05-19T04:56:57.479Z,461.00
2023-05-19T04:57:57.517Z,460.00
2023-05-19T04:58:57.556Z,458.00
2023-05-19T04:59:57.585Z,460.00
2023-05-19T05:00:57.672Z,460.00
2023-05-19T05:01:57.735Z,460.00
2023-05-19T05:02:57.891Z,463.00
2023-05-19T05:03:57.755Z,460.00
2023-05-19T05:04:57.756Z,459.00
2023-05-19T05:05:57.792Z,458.00
2023-05-19T05:06:57.839Z,459.00
2023-05-19T05:07:57.857Z,457.00
2023-05-19T05:08:57.878Z,458.00
2023-05-19T05:09:57.914Z,458.00
2023-05-19T05:10:57.967Z,458.00
2023-05-19T05:11:58.008Z,456.00
2023-05-19T05:12:58.046Z,456.00
2023-05-19T05:13:58.330Z,457.00
2023-05-19T05:14:58.130Z,457.00
2023-05-19T05:15:58.230Z,457.00
2023-05-19T05:16:58.221Z,456.00
2023-05-19T05:17:58.310Z,458.00
2023-05-19T05:18:58.309Z,461.00
2023-05-19T05:19:58.341Z,460.00
2023-05-19T05:20:58.346Z,459.00
2023-05-19T05:21:58.395Z,460.00
2023-05-19T05:22:58.416Z,460.00
2023-05-19T05:23:58.450Z,457.00
2023-05-19T05:24:58.507Z,459.00
2023-05-19T05:25:58.540Z,459.00
2023-05-19T05:26:58.586Z,459.00
2023-05-19T05:27:58.606Z,458.00
2023-05-19T05:28:58.650Z,458.00
2023-05-19T05:29:59.365Z,460.00
2023-05-19T05:30:58.724Z,460.00
2023-05-19T05:31:58.797Z,459.00
2023-05-19T05:32:58.883Z,457.00
2023-05-19T05:33:58.818Z,455.00
2023-05-19T05:34:58.856Z,456.00
2023-05-19T05:35:58.898Z,457.00
2023-05-19T05:36:58.955Z,456.00
2023-05-19T05:37:58.970Z,455.00
2023-05-19T05:38:59.007Z,457.00
2023-05-19T05:39:59.046Z,459.00
2023-05-19T05:40:59.075Z,460.00
2023-05-19T05:41:59.112Z,461.00
2023-05-19T05:42:59.155Z,458.00
2023-05-19T05:43:59.200Z,455.00
2023-05-19T05:44:59.233Z,454.00
2023-05-19T05:45:59.275Z,453.00
2023-05-19T05:46:59.308Z,454.00
2023-05-19T05:47:59.358Z,454.00
2023-05-19T05:48:59.363Z,454.00
2023-05-19T05:49:59.403Z,454.00
2023-05-19T05:50:59.473Z,457.00
2023-05-19T05:52:59.575Z,455.00
2023-05-19T05:53:59.533Z,457.00
2023-05-19T05:54:59.583Z,459.00
2023-05-19T05:55:59.626Z,461.00
2023-05-19T05:56:59.685Z,458.00
2023-05-19T05:57:59.708Z,457.00
2023-05-19T05:58:59.757Z,457.00
2023-05-19T05:59:59.807Z,458.00
2023-05-19T06:00:59.816Z,455.00
2023-05-19T06:02:00.044Z,454.00
2023-05-19T06:03:00.044Z,454.00
2023-05-19T06:03:59.919Z,455.00
2023-05-19T06:04:59.969Z,454.00
2023-05-19T06:06:00.086Z,451.00
2023-05-19T06:07:00.024Z,449.00
2023-05-19T06:08:00.058Z,449.00
2023-05-19T06:09:00.075Z,451.00
2023-05-19T06:10:00.169Z,451.00
2023-05-19T06:11:00.161Z,454.00
2023-05-19T06:12:00.177Z,453.00
2023-05-19T06:13:00.262Z,451.00
2023-05-19T06:14:00.261Z,452.00
2023-05-19T06:15:00.306Z,455.00
2023-05-19T06:16:01.953Z,452.00
2023-05-19T06:17:00.369Z,454.00
2023-05-19T06:18:00.414Z,456.00
2023-05-19T06:19:00.434Z,456.00
2023-05-19T06:20:00.446Z,458.00
2023-05-19T06:21:00.485Z,459.00
2023-05-19T06:22:00.520Z,459.00
2023-05-19T06:23:00.559Z,457.00
2023-05-19T06:24:00.590Z,459.00
2023-05-19T06:25:00.664Z,455.00
2023-05-19T06:26:00.660Z,456.00
2023-05-19T06:27:00.712Z,457.00
2023-05-19T06:28:00.715Z,457.00
2023-05-19T06:29:00.777Z,457.00
2023-05-19T06:30:00.849Z,455.00
2023-05-19T06:31:00.877Z,456.00
2023-05-19T06:32:00.923Z,455.00
2023-05-19T06:33:01.003Z,452.00
2023-05-19T06:34:01.059Z,453.00
2023-05-19T06:35:01.100Z,450.00
2023-05-19T06:36:01.158Z,449.00
2023-05-19T06:37:01.195Z,449.00
2023-05-19T06:38:01.207Z,451.00
2023-05-19T06:39:02.664Z,450.00
2023-05-19T06:40:01.308Z,450.00
2023-05-19T06:41:01.317Z,449.00
2023-05-19T06:42:01.359Z,448.00
2023-05-19T06:43:01.386Z,451.00
2023-05-19T06:44:01.433Z,451.00
2023-05-19T06:45:01.481Z,449.00
2023-05-19T06:46:01.477Z,446.00
2023-05-19T06:47:01.515Z,447.00
2023-05-19T06:48:01.539Z,447.00
2023-05-19T06:49:01.539Z,450.00
2023-05-19T06:50:01.590Z,449.00
2023-05-19T06:51:01.614Z,452.00
2023-05-19T06:52:01.655Z,452.00
2023-05-19T06:53:01.671Z,452.00
2023-05-19T06:54:01.713Z,454.00
2023-05-19T06:55:01.744Z,454.00
2023-05-19T06:56:01.770Z,454.00
2023-05-19T06:57:01.791Z,454.00
2023-05-19T06:58:01.812Z,454.00
2023-05-19T06:59:01.842Z,454.00
2023-05-19T07:00:01.892Z,458.00
2023-05-19T07:01:01.916Z,462.00
2023-05-19T07:02:02.030Z,465.00
2023-05-19T07:03:02.237Z,467.00
2023-05-19T07:04:02.174Z,467.00
2023-05-19T07:05:02.088Z,469.00
2023-05-19T07:06:02.110Z,471.00
2023-05-19T07:07:02.178Z,470.00
2023-05-19T07:08:02.204Z,468.00
2023-05-19T07:09:02.247Z,467.00
2023-05-19T07:10:02.296Z,466.00
2023-05-19T07:11:02.339Z,466.00
2023-05-19T07:12:02.384Z,465.00
2023-05-19T07:13:02.409Z,465.00
2023-05-19T07:14:02.467Z,463.00
2023-05-19T07:15:02.510Z,466.00
2023-05-19T07:16:02.546Z,467.00
2023-05-19T07:17:02.579Z,468.00
2023-05-19T07:18:02.640Z,468.00
2023-05-19T07:19:02.695Z,466.00
2023-05-19T07:20:02.704Z,465.00
2023-05-19T07:21:02.717Z,468.00
2023-05-19T07:22:02.829Z,469.00
2023-05-19T07:23:02.814Z,468.00
2023-05-19T07:24:02.858Z,469.00
2023-05-19T07:25:02.922Z,474.00
2023-05-19T07:26:02.951Z,480.00
2023-05-19T07:27:02.990Z,483.00
2023-05-19T07:28:03.028Z,491.00
2023-05-19T07:29:03.056Z,496.00
2023-05-19T07:30:03.071Z,497.00
2023-05-19T07:31:03.135Z,498.00
2023-05-19T07:32:03.175Z,494.00
2023-05-19T07:33:03.231Z,495.00
2023-05-19T07:34:03.288Z,497.00
2023-05-19T07:35:03.267Z,497.00
2023-05-19T07:36:03.310Z,498.00
2023-05-19T07:37:03.332Z,498.00
2023-05-19T07:38:03.353Z,499.00
2023-05-19T07:39:03.482Z,496.00
2023-05-19T07:40:03.411Z,495.00
2023-05-19T07:41:03.453Z,500.00
2023-05-19T07:42:03.501Z,500.00
2023-05-19T07:43:03.491Z,497.00
2023-05-19T07:44:03.525Z,497.00
2023-05-19T07:45:03.598Z,496.00
2023-05-19T07:46:03.765Z,494.00
2023-05-19T07:47:03.711Z,496.00
2023-05-19T07:48:03.795Z,490.00
2023-05-19T07:49:03.834Z,490.00
2023-05-19T07:50:03.906Z,489.00
2023-05-19T07:51:03.996Z,486.00
2023-05-19T07:52:04.032Z,485.00
2023-05-19T07:53:04.092Z,487.00
2023-05-19T07:54:04.174Z,487.00
2023-05-19T07:55:04.259Z,486.00
2023-05-19T07:56:04.366Z,484.00
2023-05-19T07:57:04.405Z,487.00
2023-05-19T07:58:04.444Z,488.00
2023-05-19T07:59:04.540Z,488.00
2023-05-19T08:00:04.650Z,489.00
2023-05-19T08:01:04.681Z,487.00
2023-05-19T08:02:04.810Z,485.00
2023-05-19T08:03:05.070Z,484.00
2023-05-19T08:04:05.061Z,482.00
2023-05-19T08:05:05.003Z,477.00
2023-05-19T08:06:05.077Z,475.00
2023-05-19T08:07:05.092Z,473.00
2023-05-19T08:08:05.117Z,473.00
2023-05-19T08:09:05.199Z,474.00
2023-05-19T08:10:05.257Z,471.00
2023-05-19T08:11:05.229Z,469.00
2023-05-19T08:12:05.251Z,465.00
2023-05-19T08:13:05.279Z,464.00
2023-05-19T08:14:05.285Z,465.00
2023-05-19T08:15:05.322Z,465.00
2023-05-19T08:16:05.390Z,463.00
2023-05-19T08:17:05.385Z,459.00
2023-05-19T08:18:05.516Z,457.00
2023-05-19T08:19:05.478Z,458.00
2023-05-19T08:20:05.471Z,461.00
2023-05-19T08:21:05.496Z,458.00
2023-05-19T08:22:05.522Z,456.00
2023-05-19T08:23:05.553Z,454.00
2023-05-19T08:24:05.572Z,453.00
2023-05-19T08:25:05.595Z,450.00
2023-05-19T08:26:05.756Z,450.00
2023-05-19T08:27:05.792Z,448.00
2023-05-19T08:28:05.840Z,446.00
2023-05-19T08:29:05.903Z,445.00
2023-05-19T08:30:05.999Z,447.00
2023-05-19T08:31:06.188Z,447.00
2023-05-19T08:32:06.185Z,443.00
2023-05-19T08:33:06.370Z,443.00
2023-05-19T08:34:06.276Z,445.00
2023-05-19T08:35:06.340Z,447.00
2023-05-19T08:36:06.380Z,447.00
2023-05-19T08:37:06.453Z,448.00
2023-05-19T08:38:06.502Z,449.00
2023-05-19T08:39:06.592Z,450.00
2023-05-19T08:40:06.697Z,452.00
2023-05-19T08:41:06.762Z,452.00
2023-05-19T08:42:06.844Z,449.00
2023-05-19T08:43:06.852Z,444.00
2023-05-19T08:44:06.887Z,443.00
2023-05-19T08:45:06.926Z,443.00
2023-05-19T08:46:06.998Z,443.00
2023-05-19T08:47:07.053Z,446.00
2023-05-19T08:48:07.060Z,445.00
2023-05-19T08:49:07.053Z,443.00
2023-05-19T08:50:07.075Z,443.00
2023-05-19T08:51:07.100Z,444.00
2023-05-19T08:52:07.174Z,442.00
2023-05-19T08:53:15.104Z,442.00
2023-05-19T08:54:08.323Z,444.00
2023-05-19T08:55:07.325Z,443.00
2023-05-19T08:56:07.347Z,442.00
2023-05-19T08:57:07.371Z,441.00
2023-05-19T08:58:07.415Z,442.00
2023-05-19T08:59:07.413Z,442.00
2023-05-19T09:00:07.442Z,443.00
2023-05-19T09:01:07.520Z,441.00
2023-05-19T09:02:07.505Z,439.00
2023-05-19T09:04:07.647Z,436.00
2023-05-19T09:05:07.598Z,438.00
2023-05-19T09:06:07.669Z,443.00
2023-05-19T09:07:07.655Z,442.00
2023-05-19T09:08:07.658Z,443.00
2023-05-19T09:09:07.697Z,442.00
2023-05-19T09:10:07.705Z,440.00
2023-05-19T09:11:07.759Z,441.00
2023-05-19T09:12:07.783Z,443.00
2023-05-19T09:13:07.807Z,444.00
2023-05-19T09:14:07.867Z,442.00
2023-05-19T09:15:07.850Z,439.00
2023-05-19T09:16:07.904Z,438.00
2023-05-19T09:17:07.911Z,439.00
2023-05-19T09:18:07.981Z,438.00
2023-05-19T09:19:07.977Z,438.00
2023-05-19T09:20:07.966Z,439.00
2023-05-19T09:21:07.984Z,438.00
2023-05-19T09:22:08.066Z,435.00
2023-05-19T09:23:08.170Z,436.00
2023-05-19T09:24:08.272Z,439.00
2023-05-19T09:25:08.336Z,441.00
2023-05-19T09:26:08.444Z,442.00
2023-05-19T09:27:08.517Z,443.00
2023-05-19T09:28:08.593Z,442.00
2023-05-19T09:29:08.683Z,441.00
2023-05-19T09:30:08.749Z,438.00
2023-05-19T09:31:08.838Z,437.00
2023-05-19T09:32:08.986Z,437.00
2023-05-19T09:33:09.011Z,437.00
2023-05-19T09:34:09.104Z,435.00
2023-05-19T09:35:09.106Z,433.00
2023-05-19T09:36:09.147Z,432.00
2023-05-19T09:37:09.175Z,431.00
2023-05-19T09:38:09.208Z,432.00
2023-05-19T09:39:09.248Z,434.00
2023-05-19T09:40:11.082Z,437.00
2023-05-19T09:41:09.467Z,438.00
2023-05-19T09:42:09.528Z,438.00
2023-05-19T09:43:09.596Z,439.00
2023-05-19T09:44:09.691Z,439.00
2023-05-19T09:45:09.743Z,439.00
2023-05-19T09:46:11.813Z,443.00
2023-05-19T09:47:09.857Z,444.00
2023-05-19T09:48:09.910Z,445.00
2023-05-19T09:49:09.914Z,445.00
2023-05-19T09:50:09.962Z,445.00
2023-05-19T09:51:09.946Z,442.00
2023-05-19T09:52:11.130Z,442.00
2023-05-19T09:53:10.002Z,440.00
2023-05-19T09:54:10.029Z,442.00
2023-05-19T09:55:10.048Z,443.00
2023-05-19T09:56:10.316Z,442.00
2023-05-19T09:57:10.116Z,441.00
2023-05-19T09:58:12.077Z,440.00
2023-05-19T09:59:10.268Z,438.00
2023-05-19T10:00:10.336Z,437.00
2023-05-19T10:01:10.405Z,435.00
2023-05-19T10:02:10.472Z,434.00
2023-05-19T10:03:10.556Z,432.00
2023-05-19T10:04:10.576Z,434.00
2023-05-19T10:05:10.757Z,436.00
2023-05-19T10:06:10.699Z,436.00
2023-05-19T10:07:10.758Z,439.00
2023-05-19T10:08:10.826Z,440.00
2023-05-19T10:09:10.862Z,440.00
2023-05-19T10:10:10.932Z,439.00
2023-05-19T10:11:10.969Z,437.00
2023-05-19T10:12:11.042Z,438.00
2023-05-19T10:13:11.079Z,438.00
2023-05-19T10:14:11.145Z,439.00
2023-05-19T10:15:11.214Z,438.00
2023-05-19T10:16:11.297Z,439.00
2023-05-19T10:17:11.308Z,442.00
2023-05-19T10:18:11.389Z,445.00
2023-05-19T10:19:11.507Z,443.00
2023-05-19T10:20:11.468Z,439.00
2023-05-19T10:21:11.511Z,439.00
2023-05-19T10:22:11.564Z,440.00
2023-05-19T10:23:11.672Z,440.00
2023-05-19T10:24:13.340Z,440.00
2023-05-19T10:25:11.795Z,441.00
2023-05-19T10:26:11.846Z,440.00
2023-05-19T10:27:11.921Z,443.00
2023-05-19T10:28:11.952Z,443.00
2023-05-19T10:29:11.986Z,441.00
2023-05-19T10:30:13.197Z,440.00
2023-05-19T10:31:12.056Z,440.00
2023-05-19T10:32:12.189Z,440.00
2023-05-19T10:33:12.223Z,442.00
2023-05-19T10:34:12.204Z,442.00
2023-05-19T10:35:12.251Z,440.00
2023-05-19T10:36:12.312Z,441.00
2023-05-19T10:37:12.335Z,440.00
2023-05-19T10:38:12.378Z,441.00
2023-05-19T10:39:12.407Z,441.00
2023-05-19T10:40:12.485Z,441.00
2023-05-19T10:41:12.506Z,438.00
2023-05-19T10:42:12.583Z,438.00
2023-05-19T10:43:12.614Z,439.00
2023-05-19T10:44:12.649Z,443.00
2023-05-19T10:45:12.689Z,442.00
2023-05-19T10:46:12.759Z,442.00
2023-05-19T10:47:12.905Z,445.00
2023-05-19T10:48:12.923Z,445.00
2023-05-19T10:49:12.972Z,446.00
2023-05-19T10:50:13.093Z,445.00
2023-05-19T10:51:13.940Z,442.00
2023-05-19T10:52:13.419Z,440.00
2023-05-19T10:53:13.228Z,440.00
2023-05-19T10:54:14.437Z,442.00
2023-05-19T10:55:13.393Z,443.00
2023-05-19T10:56:13.361Z,441.00
2023-05-19T10:57:13.490Z,440.00
2023-05-19T10:58:13.535Z,439.00
2023-05-19T10:59:13.568Z,439.00
2023-05-19T11:00:13.770Z,438.00
2023-05-19T11:01:13.615Z,441.00
2023-05-19T11:02:13.799Z,441.00
2023-05-19T11:03:13.818Z,442.00
2023-05-19T11:04:13.714Z,442.00
2023-05-19T11:05:13.692Z,444.00
2023-05-19T11:06:13.725Z,440.00
2023-05-19T11:07:13.750Z,442.00
2023-05-19T11:08:13.757Z,443.00
2023-05-19T11:09:13.793Z,446.00
2023-05-19T11:10:13.851Z,444.00
2023-05-19T11:11:13.832Z,445.00
2023-05-19T11:12:13.864Z,444.00
2023-05-19T11:13:14.942Z,443.00
2023-05-19T11:14:13.902Z,444.00
2023-05-19T11:15:13.912Z,445.00
2023-05-19T11:16:13.958Z,440.00
2023-05-19T11:17:13.974Z,437.00
2023-05-19T11:18:13.992Z,439.00
2023-05-19T11:19:14.023Z,438.00
2023-05-19T11:20:14.042Z,437.00
2023-05-19T11:21:14.081Z,437.00
2023-05-19T11:22:14.180Z,440.00
2023-05-19T11:23:14.127Z,441.00
2023-05-19T11:24:14.086Z,441.00
2023-05-19T11:25:14.115Z,440.00
2023-05-19T11:26:14.124Z,439.00
2023-05-19T11:27:14.157Z,438.00
2023-05-19T11:28:14.165Z,440.00
2023-05-19T11:29:14.194Z,442.00
2023-05-19T11:30:14.261Z,444.00
2023-05-19T11:31:14.242Z,442.00
2023-05-19T11:32:14.310Z,442.00
2023-05-19T11:33:14.336Z,443.00
2023-05-19T11:34:14.300Z,444.00
2023-05-19T11:35:14.327Z,445.00
2023-05-19T11:36:14.355Z,439.00
2023-05-19T11:37:14.478Z,439.00
2023-05-19T11:38:14.664Z,438.00
2023-05-19T11:39:14.600Z,436.00
2023-05-19T11:40:14.621Z,436.00
2023-05-19T11:41:14.658Z,436.00
2023-05-19T11:42:14.696Z,433.00
2023-05-19T11:43:14.717Z,433.00
2023-05-19T11:44:14.830Z,436.00
2023-05-19T11:45:14.947Z,436.00
2023-05-19T11:46:15.078Z,433.00
2023-05-19T11:47:15.198Z,434.00
2023-05-19T11:48:15.318Z,429.00
2023-05-19T11:49:15.444Z,428.00
2023-05-19T11:50:15.528Z,427.00
2023-05-19T11:51:15.527Z,427.00
2023-05-19T11:52:15.584Z,426.00
2023-05-19T11:53:15.605Z,427.00
2023-05-19T11:54:15.638Z,428.00
2023-05-19T11:55:15.780Z,430.00
2023-05-19T11:56:15.807Z,430.00
2023-05-19T11:57:15.917Z,432.00
2023-05-19T11:58:15.909Z,436.00
2023-05-19T11:59:15.893Z,435.00
2023-05-19T12:00:15.912Z,435.00
2023-05-19T12:01:16.047Z,436.00
2023-05-19T12:02:16.239Z,436.00
2023-05-19T12:03:16.316Z,435.00
2023-05-19T12:04:16.238Z,434.00
2023-05-19T12:05:16.386Z,436.00
2023-05-19T12:06:16.314Z,436.00
2023-05-19T12:07:16.305Z,435.00
2023-05-19T12:08:16.340Z,437.00
2023-05-19T12:09:16.350Z,437.00
2023-05-19T12:10:16.371Z,440.00
2023-05-19T12:11:18.027Z,440.00
2023-05-19T12:12:16.418Z,442.00
2023-05-19T12:13:16.424Z,439.00
2023-05-19T12:14:16.449Z,440.00
2023-05-19T12:15:16.454Z,440.00
2023-05-19T12:16:16.536Z,441.00
2023-05-19T12:17:16.540Z,444.00
2023-05-19T12:18:16.520Z,444.00
2023-05-19T12:19:16.537Z,444.00
2023-05-19T12:20:16.535Z,441.00
2023-05-19T12:21:16.564Z,441.00
2023-05-19T12:22:16.574Z,438.00
2023-05-19T12:23:16.632Z,438.00
2023-05-19T12:24:16.608Z,439.00
2023-05-19T12:25:16.615Z,437.00
2023-05-19T12:26:16.641Z,436.00
2023-05-19T12:27:16.649Z,436.00
2023-05-19T12:28:16.658Z,436.00
2023-05-19T12:29:16.685Z,435.00
2023-05-19T12:30:16.688Z,436.00
2023-05-19T12:31:16.731Z,433.00